createdAt,value
2019-04-07T00:00:27.755Z,97162.47
2019-04-07T00:02:57.147Z,97159.17
2019-04-07T00:05:26.629Z,97160.66
2019-04-07T00:07:56.720Z,97160.51
2019-04-07T00:10:26.308Z,97161.98
2019-04-07T00:12:55.707Z,97170.48
2019-04-07T00:15:25.827Z,97168.85
2019-04-07T00:17:55.385Z,97163.31
2019-04-07T00:20:25.339Z,97160.86
2019-04-07T00:22:55.241Z,97162.03
2019-04-07T00:25:25.112Z,97162.45
2019-04-07T00:27:54.508Z,97163.31
2019-04-07T00:30:23.920Z,97159.02
2019-04-07T00:32:53.331Z,97163.61
2019-04-07T00:35:29.116Z,97165.36
2019-04-07T00:37:53.879Z,97159.91
2019-04-07T00:40:23.971Z,97168.22
2019-04-07T00:42:53.465Z,97162.63
2019-04-07T00:45:22.880Z,97165.31
2019-04-07T00:47:52.631Z,97161.74
2019-04-07T00:50:22.103Z,97161.95
2019-04-07T00:52:53.129Z,97162.81
2019-04-07T00:55:23.021Z,97163.58
2019-04-07T00:57:52.957Z,97166.35
2019-04-07T01:00:24.435Z,97164.27
2019-04-07T01:02:54.110Z,97171.34
2019-04-07T01:05:34.145Z,97170.02
2019-04-07T01:07:55.256Z,97171.81
2019-04-07T01:10:24.736Z,97170.41
2019-04-07T01:12:54.138Z,97175.53
2019-04-07T01:15:24.063Z,97171.70
2019-04-07T01:17:53.504Z,97169.59
2019-04-07T01:20:22.930Z,97167.88
2019-04-07T01:22:52.775Z,97180.08
2019-04-07T01:25:22.566Z,97175.95
2019-04-07T01:27:52.031Z,97178.63
2019-04-07T01:30:21.532Z,97178.58
2019-04-07T01:32:51.047Z,97183.43
2019-04-07T01:35:21.270Z,97183.52
2019-04-07T01:37:50.785Z,97177.65
2019-04-07T01:40:20.204Z,97173.06
2019-04-07T01:43:09.327Z,97176.59
2019-04-07T01:45:58.821Z,97174.91
2019-04-07T01:48:30.256Z,97180.50
2019-04-07T01:51:07.309Z,97187.34
2019-04-07T01:53:54.740Z,97194.41
2019-04-07T01:56:26.279Z,97184.45
2019-04-07T01:58:57.391Z,97188.63
2019-04-07T02:01:31.372Z,97190.56
2019-04-07T02:04:18.220Z,97188.16
2019-04-07T02:06:58.230Z,97178.55
2019-04-07T02:09:38.270Z,97178.25
2019-04-07T02:12:25.905Z,97182.05
2019-04-07T02:14:57.494Z,97181.33
2019-04-07T02:17:28.604Z,97186.72
2019-04-07T02:20:00.294Z,97183.15
2019-04-07T02:22:31.356Z,97184.44
2019-04-07T02:25:14.664Z,97180.73
2019-04-07T02:28:02.343Z,97180.09
2019-04-07T02:30:33.384Z,97181.09
2019-04-07T02:33:14.556Z,97175.80
2019-04-07T02:35:48.910Z,97172.68
2019-04-07T02:38:20.859Z,97170.11
2019-04-07T02:41:04.390Z,97172.81
2019-04-07T02:43:51.797Z,97175.50
2019-04-07T02:46:25.661Z,97174.61
2019-04-07T02:49:02.589Z,97168.96
2019-04-07T02:51:51.742Z,97167.66
2019-04-07T02:54:25.198Z,97169.08
2019-04-07T02:56:56.280Z,97176.01
2019-04-07T02:59:27.400Z,97178.61
2019-04-07T03:01:59.291Z,97175.57
2019-04-07T03:04:48.792Z,97176.00
2019-04-07T03:07:32.600Z,97175.87
2019-04-07T03:10:04.408Z,97178.03
2019-04-07T03:12:38.111Z,97173.59
2019-04-07T03:15:24.942Z,97177.90
2019-04-07T03:18:12.842Z,97181.75
2019-04-07T03:20:43.921Z,97174.13
2019-04-07T03:23:16.175Z,97182.91
2019-04-07T03:26:02.521Z,97186.98
2019-04-07T03:28:36.571Z,97197.14
2019-04-07T03:31:24.387Z,97197.27
2019-04-07T03:34:13.813Z,97196.34
2019-04-07T03:37:19.351Z,97201.89
2019-04-07T03:39:38.269Z,97200.52
2019-04-07T03:42:25.691Z,97195.69
2019-04-07T03:45:08.745Z,97194.45
2019-04-07T03:50:44.841Z,97197.45
2019-04-07T03:53:21.582Z,97201.20
2019-04-07T03:55:53.451Z,97200.95
2019-04-07T03:58:43.050Z,97192.05
2019-04-07T04:01:30.943Z,97200.40
2019-04-07T04:04:05.554Z,97203.08
2019-04-07T04:06:53.438Z,97195.78
2019-04-07T04:09:30.542Z,97202.33
2019-04-07T04:12:17.118Z,97197.58
2019-04-07T04:15:04.791Z,97199.59
2019-04-07T04:17:34.671Z,97204.50
2019-04-07T04:20:07.140Z,97202.01
2019-04-07T04:22:36.539Z,97206.09
2019-04-07T04:25:07.144Z,97214.81
2019-04-07T04:27:36.967Z,97216.95
2019-04-07T04:30:11.744Z,97215.31
2019-04-07T04:32:41.582Z,97216.41
2019-04-07T04:35:11.496Z,97210.72
2019-04-07T04:37:47.590Z,97217.16
2019-04-07T04:40:12.362Z,97216.39
2019-04-07T04:42:42.086Z,97220.26
2019-04-07T04:45:11.606Z,97222.88
2019-04-07T04:47:41.059Z,97225.16
2019-04-07T04:50:10.661Z,97224.25
2019-04-07T04:52:40.833Z,97224.73
2019-04-07T04:55:11.314Z,97229.80
2019-04-07T04:57:40.867Z,97230.93
2019-04-07T05:00:10.788Z,97236.16
2019-04-07T05:02:40.199Z,97241.02
2019-04-07T05:05:11.105Z,97237.98
2019-04-07T05:07:50.066Z,97244.00
2019-04-07T05:10:12.281Z,97244.98
2019-04-07T05:12:42.025Z,97245.86
2019-04-07T05:15:11.991Z,97247.83
2019-04-07T05:17:42.076Z,97251.95
2019-04-07T05:20:12.393Z,97250.33
2019-04-07T05:22:42.160Z,97259.04
2019-04-07T05:25:12.042Z,97262.80
2019-04-07T05:27:41.662Z,97256.40
2019-04-07T05:30:11.298Z,97255.83
2019-04-07T05:32:41.040Z,97262.65
2019-04-07T05:35:12.011Z,97263.27
2019-04-07T05:37:41.791Z,97264.37
2019-04-07T05:40:11.424Z,97265.94
2019-04-07T05:42:40.860Z,97264.23
2019-04-07T05:45:10.324Z,97268.92
2019-04-07T05:47:43.671Z,97269.22
2019-04-07T05:50:13.268Z,97267.31
2019-04-07T05:52:43.308Z,97270.92
2019-04-07T05:55:12.952Z,97274.05
2019-04-07T05:57:43.104Z,97279.98
2019-04-07T06:00:15.642Z,97277.31
2019-04-07T06:02:45.573Z,97280.81
2019-04-07T06:05:16.307Z,97284.25
2019-04-07T06:07:47.018Z,97290.30
2019-04-07T06:10:16.757Z,97288.89
2019-04-07T06:12:47.925Z,97290.58
2019-04-07T06:15:21.561Z,97284.38
2019-04-07T06:17:49.092Z,97279.95
2019-04-07T06:20:18.950Z,97288.22
2019-04-07T06:22:52.707Z,97280.21
2019-04-07T06:25:19.531Z,97283.09
2019-04-07T06:27:49.033Z,97284.70
2019-04-07T06:30:19.294Z,97287.16
2019-04-07T06:32:48.773Z,97285.70
2019-04-07T06:35:18.313Z,97284.31
2019-04-07T06:37:47.792Z,97280.16
2019-04-07T06:40:20.463Z,97282.28
2019-04-07T06:42:48.869Z,97277.28
2019-04-07T06:45:21.824Z,97273.91
2019-04-07T06:48:07.752Z,97280.69
2019-04-07T06:50:56.033Z,97282.52
2019-04-07T06:53:22.099Z,97288.95
2019-04-07T06:55:53.134Z,97292.88
2019-04-07T06:58:24.343Z,97293.13
2019-04-07T07:01:12.155Z,97290.31
2019-04-07T07:03:58.550Z,97289.87
2019-04-07T07:06:32.875Z,97296.94
2019-04-07T07:09:09.495Z,97308.95
2019-04-07T07:11:46.531Z,97305.77
2019-04-07T07:14:41.424Z,97305.44
2019-04-07T07:17:23.024Z,97309.97
2019-04-07T07:20:10.489Z,97322.66
2019-04-07T07:22:50.834Z,97324.78
2019-04-07T07:25:20.454Z,97320.97
2019-04-07T07:27:49.923Z,97317.23
2019-04-07T07:30:20.306Z,97320.41
2019-04-07T07:32:50.874Z,97313.40
2019-04-07T07:35:20.373Z,97314.74
2019-04-07T07:37:50.017Z,97310.66
2019-04-07T07:40:19.481Z,97317.05
2019-04-07T07:42:50.862Z,97314.65
2019-04-07T07:45:20.115Z,97314.56
2019-04-07T07:47:53.193Z,97325.77
2019-04-07T07:50:20.625Z,97318.02
2019-04-07T07:52:53.359Z,97324.32
2019-04-07T07:55:21.914Z,97325.61
2019-04-07T07:57:55.497Z,97320.38
2019-04-07T08:00:22.470Z,97325.22
2019-04-07T08:02:53.439Z,97327.33
2019-04-07T08:05:23.863Z,97329.47
2019-04-07T08:07:54.075Z,97329.45
2019-04-07T08:10:25.364Z,97321.24
2019-04-07T08:12:54.734Z,97330.49
2019-04-07T08:15:29.699Z,97345.49
2019-04-07T08:17:55.267Z,97333.09
2019-04-07T08:20:24.723Z,97335.77
2019-04-07T08:22:54.955Z,97337.52
2019-04-07T08:25:25.067Z,97336.17
2019-04-07T08:27:55.409Z,97335.27
2019-04-07T08:30:25.025Z,97336.18
2019-04-07T08:32:57.674Z,97337.92
2019-04-07T08:35:25.764Z,97340.83
2019-04-07T08:37:55.618Z,97344.44
2019-04-07T08:40:25.264Z,97346.24
2019-04-07T08:42:54.654Z,97342.80
2019-04-07T08:45:24.066Z,97350.84
2019-04-07T08:47:53.703Z,97344.29
2019-04-07T08:50:27.228Z,97353.30
2019-04-07T08:52:54.319Z,97350.66
2019-04-07T08:55:23.751Z,97353.98
2019-04-07T08:57:53.182Z,97353.17
2019-04-07T09:00:24.928Z,97354.91
2019-04-07T09:03:04.034Z,97354.00
2019-04-07T09:05:29.037Z,97353.33
2019-04-07T09:07:57.369Z,97352.77
2019-04-07T09:10:33.237Z,97357.59
2019-04-07T09:13:04.804Z,97357.89
2019-04-07T09:15:35.126Z,97361.25
2019-04-07T09:18:06.268Z,97366.88
2019-04-07T09:20:55.107Z,97360.96
2019-04-07T09:23:29.494Z,97368.91
2019-04-07T09:26:16.083Z,97375.19
2019-04-07T09:28:47.633Z,97367.41
2019-04-07T09:31:19.590Z,97370.72
2019-04-07T09:33:50.734Z,97368.86
2019-04-07T09:36:28.530Z,97369.18
2019-04-07T09:39:02.735Z,97367.77
2019-04-07T09:41:48.596Z,97372.24
2019-04-07T09:44:19.865Z,97368.95
2019-04-07T09:46:57.428Z,97368.55
2019-04-07T09:49:37.929Z,97372.79
2019-04-07T09:52:25.713Z,97379.41
2019-04-07T09:55:02.706Z,97375.11
2019-04-07T09:57:40.900Z,97373.34
2019-04-07T10:00:16.042Z,97375.06
2019-04-07T10:02:55.924Z,97380.71
2019-04-07T10:05:40.411Z,97375.89
2019-04-07T10:08:19.073Z,97380.28
2019-04-07T10:11:03.092Z,97377.67
2019-04-07T10:16:32.963Z,97380.52
2019-04-07T10:19:09.820Z,97383.98
2019-04-07T10:21:41.656Z,97386.09
2019-04-07T10:24:15.353Z,97381.19
2019-04-07T10:26:58.835Z,97374.94
2019-04-07T10:29:30.758Z,97382.36
2019-04-07T10:32:02.396Z,97384.00
2019-04-07T10:34:33.518Z,97380.13
2019-04-07T10:37:13.460Z,97377.97
2019-04-07T10:39:47.281Z,97373.89
2019-04-07T10:42:18.998Z,97372.53
2019-04-07T10:45:02.410Z,97375.80
2019-04-07T10:47:42.269Z,97372.12
2019-04-07T10:50:19.984Z,97379.03
2019-04-07T10:52:57.964Z,97377.69
2019-04-07T10:55:38.471Z,97376.61
2019-04-07T10:58:15.371Z,97380.97
2019-04-07T11:01:05.137Z,97379.84
2019-04-07T11:03:53.973Z,97377.41
2019-04-07T11:06:28.385Z,97378.03
2019-04-07T11:09:08.822Z,97378.53
2019-04-07T11:11:41.209Z,97384.12
2019-04-07T11:14:14.966Z,97382.08
2019-04-07T11:16:46.410Z,97386.03
2019-04-07T11:19:20.772Z,97390.83
2019-04-07T11:21:54.267Z,97387.16
2019-04-07T11:24:41.763Z,97386.05
2019-04-07T11:27:13.161Z,97384.55
2019-04-07T11:29:46.757Z,97387.83
2019-04-07T11:32:20.248Z,97395.77
2019-04-07T11:35:09.564Z,97393.73
2019-04-07T11:37:40.814Z,97394.43
2019-04-07T11:40:14.986Z,97386.05
2019-04-07T11:42:46.158Z,97391.06
2019-04-07T11:45:20.778Z,97388.94
2019-04-07T11:47:52.549Z,97383.48
2019-04-07T11:50:23.763Z,97383.31
2019-04-07T11:53:07.450Z,97380.87
2019-04-07T11:55:45.318Z,97379.20
2019-04-07T11:58:25.442Z,97381.11
2019-04-07T12:01:14.257Z,97387.66
2019-04-07T12:03:43.209Z,97384.94
2019-04-07T12:06:16.817Z,97393.81
2019-04-07T12:08:50.049Z,97394.28
2019-04-07T12:11:27.677Z,97389.71
2019-04-07T12:14:08.980Z,97390.09
2019-04-07T12:16:49.273Z,97390.93
2019-04-07T12:19:33.351Z,97394.38
2019-04-07T12:22:14.262Z,97398.01
2019-04-07T12:25:05.410Z,97399.86
2019-04-07T12:27:46.211Z,97395.42
2019-04-07T12:30:23.281Z,97398.73
2019-04-07T12:33:00.393Z,97398.69
2019-04-07T12:35:51.629Z,97396.73
2019-04-07T12:38:21.006Z,97400.24
2019-04-07T12:41:15.141Z,97399.84
2019-04-07T12:43:56.200Z,97400.86
2019-04-07T12:46:30.177Z,97399.83
2019-04-07T12:49:10.372Z,97400.88
2019-04-07T12:51:57.580Z,97397.00
2019-04-07T12:54:41.364Z,97402.66
2019-04-07T12:57:28.866Z,97403.56
2019-04-07T13:00:15.732Z,97401.55
2019-04-07T13:03:01.755Z,97402.01
2019-04-07T13:05:44.677Z,97402.53
2019-04-07T13:08:25.686Z,97393.55
2019-04-07T13:10:56.772Z,97396.23
2019-04-07T13:13:43.926Z,97394.73
2019-04-07T13:16:26.253Z,97393.08
2019-04-07T13:19:14.348Z,97387.97
2019-04-07T13:22:00.808Z,97393.42
2019-04-07T13:24:35.159Z,97389.16
2019-04-07T13:27:06.379Z,97395.81
2019-04-07T13:29:41.149Z,97399.81
2019-04-07T13:32:40.211Z,97395.66
2019-04-07T13:35:05.025Z,97394.54
2019-04-07T13:37:36.725Z,97395.87
2019-04-07T13:40:15.714Z,97396.80
2019-04-07T13:42:47.662Z,97399.86
2019-04-07T13:45:28.057Z,97396.83
2019-04-07T13:48:08.950Z,97397.82
2019-04-07T13:50:42.607Z,97398.09
2019-04-07T13:53:14.484Z,97397.47
2019-04-07T13:55:48.699Z,97390.62
2019-04-07T13:58:20.737Z,97393.73
2019-04-07T14:01:03.843Z,97395.94
2019-04-07T14:03:47.014Z,97397.90
2019-04-07T14:06:24.769Z,97395.74
2019-04-07T14:09:13.754Z,97401.42
2019-04-07T14:12:04.854Z,97397.94
2019-04-07T14:14:42.562Z,97405.10
2019-04-07T14:17:20.803Z,97400.27
2019-04-07T14:20:08.928Z,97401.59
2019-04-07T14:22:46.583Z,97401.80
2019-04-07T14:25:18.053Z,97396.23
2019-04-07T14:28:01.090Z,97398.03
2019-04-07T14:30:35.460Z,97405.52
2019-04-07T14:33:06.607Z,97412.41
2019-04-07T14:35:41.022Z,97404.53
2019-04-07T14:38:29.035Z,97400.98
2019-04-07T14:41:06.454Z,97405.33
2019-04-07T14:43:37.561Z,97410.30
2019-04-07T14:46:14.511Z,97408.01
2019-04-07T14:49:01.141Z,97413.36
2019-04-07T14:51:45.036Z,97417.75
2019-04-07T14:54:33.394Z,97417.34
2019-04-07T14:57:07.336Z,97415.91
2019-04-07T14:59:54.427Z,97420.00
2019-04-07T15:02:24.735Z,97422.92
2019-04-07T15:05:14.801Z,97420.19
2019-04-07T15:08:02.235Z,97421.12
2019-04-07T15:10:34.058Z,97426.82
2019-04-07T15:13:07.610Z,97426.58
2019-04-07T15:15:37.128Z,97429.30
2019-04-07T15:18:08.123Z,97427.47
2019-04-07T15:20:37.865Z,97421.14
2019-04-07T15:23:07.355Z,97428.41
2019-04-07T15:25:41.278Z,97437.23
2019-04-07T15:28:09.343Z,97439.00
2019-04-07T15:30:40.597Z,97434.07
2019-04-07T15:33:11.870Z,97434.80
2019-04-07T15:35:45.060Z,97438.36
2019-04-07T15:38:12.659Z,97438.10
2019-04-07T15:40:42.772Z,97437.55
2019-04-07T15:43:12.572Z,97442.53
2019-04-07T15:45:44.398Z,97439.74
2019-04-07T15:48:13.677Z,97437.50
2019-04-07T15:50:43.122Z,97440.34
2019-04-07T15:53:14.379Z,97439.00
2019-04-07T15:55:51.620Z,97445.11
2019-04-07T15:58:15.889Z,97442.71
2019-04-07T16:00:46.184Z,97447.45
2019-04-07T16:03:16.944Z,97451.38
2019-04-07T16:05:46.603Z,97449.76
2019-04-07T16:08:16.245Z,97454.16
2019-04-07T16:10:46.571Z,97446.84
2019-04-07T16:13:16.160Z,97455.14
2019-04-07T16:15:48.368Z,97458.50
2019-04-07T16:18:16.955Z,97455.30
2019-04-07T16:20:46.517Z,97463.50
2019-04-07T16:23:18.335Z,97465.05
2019-04-07T16:25:47.514Z,97462.91
2019-04-07T16:28:17.075Z,97466.81
2019-04-07T16:30:50.164Z,97470.94
2019-04-07T16:33:17.621Z,97469.61
2019-04-07T16:35:52.766Z,97476.96
2019-04-07T16:38:18.151Z,97477.98
2019-04-07T16:40:47.984Z,97486.32
2019-04-07T16:43:18.932Z,97483.27
2019-04-07T16:45:48.701Z,97486.34
2019-04-07T16:48:18.109Z,97490.23
2019-04-07T16:50:51.026Z,97492.17
2019-04-07T16:53:18.735Z,97491.25
2019-04-07T16:55:52.750Z,97495.59
2019-04-07T16:58:19.402Z,97496.82
2019-04-07T17:00:49.861Z,97498.61
2019-04-07T17:03:19.357Z,97505.86
2019-04-07T17:05:48.792Z,97506.00
2019-04-07T17:08:21.107Z,97508.86
2019-04-07T17:10:52.706Z,97518.99
2019-04-07T17:13:30.581Z,97518.48
2019-04-07T17:15:54.077Z,97516.89
2019-04-07T17:18:36.730Z,97520.96
2019-04-07T17:21:09.445Z,97519.45
2019-04-07T17:23:39.970Z,97522.65
2019-04-07T17:26:11.544Z,97515.24
2019-04-07T17:28:44.497Z,97522.84
2019-04-07T17:31:13.062Z,97521.98
2019-04-07T17:33:42.723Z,97519.47
2019-04-07T17:36:15.344Z,97517.52
2019-04-07T17:38:53.780Z,97521.55
2019-04-07T17:41:23.498Z,97527.86
2019-04-07T17:43:59.356Z,97529.81
2019-04-07T17:46:32.614Z,97527.45
2019-04-07T17:49:04.534Z,97528.38
2019-04-07T17:51:42.212Z,97534.75
2019-04-07T17:54:17.433Z,97540.27
2019-04-07T17:56:52.097Z,97546.08
2019-04-07T17:59:40.150Z,97553.16
2019-04-07T18:02:11.884Z,97554.03
2019-04-07T18:04:45.982Z,97553.44
2019-04-07T18:07:18.668Z,97561.98
2019-04-07T18:09:51.359Z,97558.38
2019-04-07T18:12:31.810Z,97558.66
2019-04-07T18:15:19.100Z,97563.77
2019-04-07T18:17:56.159Z,97566.14
2019-04-07T18:20:40.480Z,97568.92
2019-04-07T18:23:14.658Z,97572.50
2019-04-07T18:25:50.655Z,97572.77
2019-04-07T18:28:26.034Z,97577.87
2019-04-07T18:31:13.274Z,97580.70
2019-04-07T18:33:52.289Z,97579.70
2019-04-07T18:36:39.370Z,97579.81
2019-04-07T18:39:19.866Z,97582.39
2019-04-07T18:42:02.090Z,97583.43
2019-04-07T18:44:41.028Z,97585.38
2019-04-07T18:47:37.018Z,97590.81
2019-04-07T18:50:12.544Z,97599.55
2019-04-07T18:52:44.548Z,97597.89
2019-04-07T18:55:18.692Z,97601.89
2019-04-07T18:57:49.762Z,97607.34
2019-04-07T19:00:30.198Z,97621.42
2019-04-07T19:03:05.718Z,97623.14
2019-04-07T19:05:36.713Z,97626.52
2019-04-07T19:08:23.149Z,97628.00
2019-04-07T19:11:10.687Z,97638.37
2019-04-07T19:13:39.242Z,97633.78
2019-04-07T19:16:13.551Z,97642.50
2019-04-07T19:18:58.550Z,97647.03
2019-04-07T19:21:32.475Z,97649.52
2019-04-07T19:24:12.964Z,97651.13
2019-04-07T19:26:44.369Z,97650.86
2019-04-07T19:29:22.793Z,97651.69
2019-04-07T19:32:06.001Z,97651.91
2019-04-07T19:34:36.954Z,97652.54
2019-04-07T19:37:08.222Z,97654.98
2019-04-07T19:39:44.961Z,97657.93
2019-04-07T19:45:16.279Z,97659.25
2019-04-07T19:47:49.928Z,97659.39
2019-04-07T19:50:30.715Z,97666.34
2019-04-07T19:53:13.721Z,97667.34
2019-04-07T19:56:00.875Z,97668.73
2019-04-07T19:58:48.651Z,97668.31
2019-04-07T20:01:36.142Z,97674.08
2019-04-07T20:04:10.234Z,97667.80
2019-04-07T20:06:44.012Z,97662.81
2019-04-07T20:09:15.080Z,97665.14
2019-04-07T20:11:55.018Z,97670.31
2019-04-07T20:14:26.297Z,97661.14
2019-04-07T20:16:57.789Z,97664.17
2019-04-07T20:19:45.347Z,97667.74
2019-04-07T20:22:17.512Z,97670.41
2019-04-07T20:25:09.538Z,97665.34
2019-04-07T20:27:37.850Z,97665.89
2019-04-07T20:30:15.565Z,97674.58
2019-04-07T20:32:48.440Z,97671.55
2019-04-07T20:35:35.022Z,97670.71
2019-04-07T20:38:11.556Z,97670.65
2019-04-07T20:40:46.477Z,97673.91
2019-04-07T20:43:35.701Z,97673.19
2019-04-07T20:46:13.126Z,97677.60
2019-04-07T20:48:47.271Z,97671.84
2019-04-07T20:51:22.141Z,97678.47
2019-04-07T20:53:59.813Z,97669.23
2019-04-07T20:56:46.217Z,97675.25
2019-04-07T20:59:47.775Z,97679.31
2019-04-07T21:02:25.045Z,97681.53
2019-04-07T21:04:57.054Z,97671.48
2019-04-07T21:07:31.398Z,97676.34
2019-04-07T21:10:08.344Z,97676.92
2019-04-07T21:12:53.529Z,97670.52
2019-04-07T21:15:33.794Z,97671.58
2019-04-07T21:18:08.321Z,97676.08
2019-04-07T21:20:39.439Z,97666.77
2019-04-07T21:23:28.688Z,97674.09
2019-04-07T21:25:59.747Z,97670.34
2019-04-07T21:28:36.846Z,97674.98
2019-04-07T21:31:20.022Z,97674.84
2019-04-07T21:34:08.999Z,97679.59
2019-04-07T21:36:41.470Z,97682.41
2019-04-07T21:39:23.079Z,97683.42
2019-04-07T21:42:10.365Z,97686.25
2019-04-07T21:44:47.676Z,97687.31
2019-04-07T21:47:18.795Z,97685.80
2019-04-07T21:49:53.574Z,97687.77
2019-04-07T21:52:41.030Z,97682.49
2019-04-07T21:55:27.244Z,97683.13
2019-04-07T21:58:01.056Z,97687.63
2019-04-07T22:00:32.929Z,97688.56
2019-04-07T22:03:04.068Z,97692.64
2019-04-07T22:05:35.129Z,97697.09
2019-04-07T22:08:13.074Z,97692.33
2019-04-07T22:10:38.130Z,97686.92
2019-04-07T22:13:08.332Z,97689.71
2019-04-07T22:15:47.407Z,97688.23
2019-04-07T22:18:10.009Z,97692.76
2019-04-07T22:20:39.496Z,97692.45
2019-04-07T22:23:09.976Z,97690.13
2019-04-07T22:25:51.228Z,97693.45
2019-04-07T22:28:20.854Z,97697.72
2019-04-07T22:30:52.064Z,97698.42
2019-04-07T22:33:25.318Z,97702.98
2019-04-07T22:35:53.294Z,97697.23
2019-04-07T22:38:23.746Z,97696.12
2019-04-07T22:40:54.297Z,97701.86
2019-04-07T22:43:24.845Z,97697.75
2019-04-07T22:46:04.215Z,97702.34
2019-04-07T22:48:27.177Z,97705.39
2019-04-07T22:50:56.649Z,97708.50
2019-04-07T22:53:29.597Z,97704.08
2019-04-07T22:55:57.207Z,97703.27
2019-04-07T22:58:27.721Z,97709.55
2019-04-07T23:00:57.228Z,97702.11
2019-04-07T23:03:27.155Z,97699.66
2019-04-07T23:05:57.495Z,97705.59
2019-04-07T23:08:27.050Z,97701.55
2019-04-07T23:10:56.452Z,97705.20
2019-04-07T23:13:25.918Z,97708.79
2019-04-07T23:16:07.327Z,97710.41
2019-04-07T23:18:26.453Z,97714.79
2019-04-07T23:20:55.865Z,97710.24
2019-04-07T23:23:26.022Z,97706.40
2019-04-07T23:25:55.686Z,97709.56
2019-04-07T23:28:25.207Z,97705.30
2019-04-07T23:30:54.939Z,97699.17
2019-04-07T23:33:24.424Z,97702.98
2019-04-07T23:35:53.844Z,97695.55
2019-04-07T23:38:23.968Z,97695.05
2019-04-07T23:40:53.589Z,97695.86
2019-04-07T23:43:22.961Z,97699.34
2019-04-07T23:45:52.395Z,97701.00
2019-04-07T23:48:22.243Z,97703.91
2019-04-07T23:50:52.019Z,97701.98
2019-04-07T23:53:58.088Z,97699.50
2019-04-07T23:56:27.538Z,97707.17
2019-04-07T23:58:56.934Z,97706.64
